createdAt,value
2022-10-06T00:00:49.454Z,80.40
2022-10-06T00:03:34.802Z,80.48
2022-10-06T00:06:05.144Z,80.48
2022-10-06T00:08:48.129Z,80.58
2022-10-06T00:11:17.639Z,80.66
2022-10-06T00:14:00.107Z,80.33
2022-10-06T00:16:29.323Z,80.41
2022-10-06T00:18:58.989Z,80.50
2022-10-06T00:21:41.349Z,80.40
2022-10-06T00:24:24.264Z,80.92
2022-10-06T00:26:53.532Z,80.93
2022-10-06T00:29:37.193Z,80.83
2022-10-06T00:32:06.871Z,80.74
2022-10-06T00:34:39.561Z,80.81
2022-10-06T00:37:08.952Z,80.50
2022-10-06T00:39:37.819Z,80.88
2022-10-06T00:42:06.648Z,80.97
2022-10-06T00:44:35.580Z,80.53
2022-10-06T00:47:20.074Z,80.84
2022-10-06T00:50:03.000Z,80.87
2022-10-06T00:52:45.844Z,81.11
2022-10-06T00:55:16.171Z,81.07
2022-10-06T00:57:46.972Z,81.17
2022-10-06T01:00:16.548Z,80.99
2022-10-06T01:02:53.410Z,80.85
2022-10-06T01:05:28.518Z,81.08
2022-10-06T01:07:58.156Z,81.22
2022-10-06T01:10:42.406Z,81.34
2022-10-06T01:13:13.956Z,81.32
2022-10-06T01:16:29.685Z,81.34
2022-10-06T01:19:27.552Z,81.36
2022-10-06T01:22:14.749Z,81.57
2022-10-06T01:24:58.191Z,81.36
2022-10-06T01:27:30.953Z,81.45
2022-10-06T01:30:20.077Z,81.49
2022-10-06T01:32:49.056Z,81.53
2022-10-06T01:35:31.459Z,81.46
2022-10-06T01:38:00.373Z,81.76
2022-10-06T01:40:45.280Z,81.49
2022-10-06T01:43:14.721Z,81.88
2022-10-06T01:45:59.010Z,81.59
2022-10-06T01:48:28.751Z,81.49
2022-10-06T01:51:16.247Z,81.49
2022-10-06T01:53:46.063Z,81.62
2022-10-06T01:56:15.905Z,81.72
2022-10-06T01:58:58.610Z,81.74
2022-10-06T02:01:28.356Z,81.76
2022-10-06T02:03:58.019Z,81.71
2022-10-06T02:06:41.252Z,81.98
2022-10-06T02:09:24.284Z,81.85
2022-10-06T02:11:54.858Z,82.04
2022-10-06T02:14:24.014Z,81.93
2022-10-06T02:16:53.027Z,81.83
2022-10-06T02:19:22.107Z,82.30
2022-10-06T02:21:51.929Z,81.87
2022-10-06T02:24:20.846Z,82.06
2022-10-06T02:26:49.917Z,82.36
2022-10-06T02:29:18.918Z,82.12
2022-10-06T02:31:48.186Z,82.53
2022-10-06T02:34:17.664Z,82.20
2022-10-06T02:36:47.142Z,82.36
2022-10-06T02:39:29.831Z,82.41
2022-10-06T02:41:58.893Z,82.14
2022-10-06T02:44:27.718Z,82.61
2022-10-06T02:46:57.433Z,82.68
2022-10-06T02:49:40.314Z,82.46
2022-10-06T02:52:09.330Z,82.47
2022-10-06T02:54:52.317Z,82.38
2022-10-06T02:57:35.371Z,82.63
2022-10-06T03:00:18.553Z,82.65
2022-10-06T03:02:50.064Z,82.72
2022-10-06T03:05:32.624Z,82.46
2022-10-06T03:08:16.003Z,82.59
2022-10-06T03:10:45.550Z,82.59
2022-10-06T03:13:29.030Z,82.98
2022-10-06T03:16:20.478Z,82.90
2022-10-06T03:19:03.799Z,83.02
2022-10-06T03:21:47.169Z,83.16
2022-10-06T03:24:16.229Z,82.83
2022-10-06T03:26:50.394Z,82.95
2022-10-06T03:29:21.151Z,82.75
2022-10-06T03:32:07.478Z,83.02
2022-10-06T03:34:37.830Z,82.95
2022-10-06T03:37:23.064Z,82.95
2022-10-06T03:40:06.455Z,83.01
2022-10-06T03:42:35.397Z,82.98
2022-10-06T03:45:04.632Z,83.37
2022-10-06T03:47:34.255Z,83.10
2022-10-06T03:50:17.781Z,83.05
2022-10-06T03:52:51.499Z,83.04
2022-10-06T03:55:22.470Z,83.32
2022-10-06T03:57:51.421Z,83.43
2022-10-06T04:00:34.939Z,83.44
2022-10-06T04:03:04.081Z,83.39
2022-10-06T04:05:54.473Z,83.21
2022-10-06T04:08:24.608Z,83.23
2022-10-06T04:10:54.836Z,83.63
2022-10-06T04:13:38.604Z,83.17
2022-10-06T04:16:18.878Z,83.23
2022-10-06T04:18:51.557Z,83.57
2022-10-06T04:21:21.316Z,83.80
2022-10-06T04:24:05.278Z,83.56
2022-10-06T04:26:50.240Z,83.56
2022-10-06T04:29:33.898Z,83.50
2022-10-06T04:32:16.477Z,83.64
2022-10-06T04:34:45.548Z,83.53
2022-10-06T04:37:29.168Z,83.63
2022-10-06T04:39:58.535Z,83.62
2022-10-06T04:42:42.150Z,83.85
2022-10-06T04:45:28.697Z,83.76
2022-10-06T04:48:11.133Z,83.86
2022-10-06T04:50:40.475Z,84.05
2022-10-06T04:53:26.385Z,84.10
2022-10-06T04:56:12.355Z,84.11
2022-10-06T04:58:44.873Z,84.18
2022-10-06T05:01:33.336Z,84.31
2022-10-06T05:04:06.523Z,84.26
2022-10-06T05:06:50.525Z,84.03
2022-10-06T05:09:32.954Z,84.19
2022-10-06T05:12:17.159Z,83.92
2022-10-06T05:14:47.120Z,84.29
2022-10-06T05:17:16.596Z,84.06
2022-10-06T05:19:45.973Z,84.13
2022-10-06T05:22:28.946Z,84.16
2022-10-06T05:24:57.814Z,84.26
2022-10-06T05:27:26.696Z,84.45
2022-10-06T05:29:55.649Z,84.26
2022-10-06T05:32:38.138Z,84.26
2022-10-06T05:35:21.929Z,84.39
2022-10-06T05:38:04.435Z,84.35
2022-10-06T05:40:33.469Z,84.45
2022-10-06T05:43:02.315Z,84.43
2022-10-06T05:45:56.277Z,84.68
2022-10-06T05:48:38.915Z,84.33
2022-10-06T05:51:10.254Z,84.26
2022-10-06T05:53:40.994Z,84.40
2022-10-06T05:56:15.282Z,84.24
2022-10-06T05:58:59.429Z,84.37
2022-10-06T06:01:44.318Z,84.30
2022-10-06T06:04:40.999Z,84.49
2022-10-06T06:07:23.422Z,84.25
2022-10-06T06:10:06.145Z,84.26
2022-10-06T06:12:35.788Z,84.31
2022-10-06T06:15:43.220Z,84.25
2022-10-06T06:18:13.414Z,84.22
2022-10-06T06:20:42.672Z,84.57
2022-10-06T06:23:25.702Z,84.43
2022-10-06T06:26:02.949Z,84.33
2022-10-06T06:28:37.385Z,84.40
2022-10-06T06:31:28.207Z,84.41
2022-10-06T06:34:12.280Z,84.40
2022-10-06T06:36:46.037Z,84.26
2022-10-06T06:39:31.126Z,84.38
2022-10-06T06:42:02.224Z,84.48
2022-10-06T06:44:57.656Z,84.54
2022-10-06T06:47:32.425Z,84.57
2022-10-06T06:50:17.943Z,84.63
2022-10-06T06:53:02.722Z,84.53
2022-10-06T06:55:34.189Z,84.63
2022-10-06T06:58:18.104Z,84.76
2022-10-06T07:01:13.910Z,84.61
2022-10-06T07:04:02.452Z,84.65
2022-10-06T07:06:53.557Z,84.71
2022-10-06T07:09:24.133Z,84.76
2022-10-06T07:11:55.355Z,84.82
2022-10-06T07:14:58.556Z,84.70
2022-10-06T07:17:59.762Z,84.77
2022-10-06T07:21:02.060Z,84.78
2022-10-06T07:23:49.569Z,84.52
2022-10-06T07:26:35.358Z,84.60
2022-10-06T07:29:04.126Z,84.33
2022-10-06T07:31:48.057Z,84.29
2022-10-06T07:34:31.576Z,84.45
2022-10-06T07:37:14.154Z,84.26
2022-10-06T07:39:56.814Z,84.12
2022-10-06T07:42:25.724Z,84.08
2022-10-06T07:45:12.984Z,84.16
2022-10-06T07:48:01.443Z,83.81
2022-10-06T07:50:31.589Z,83.61
2022-10-06T07:53:01.918Z,83.53
2022-10-06T07:55:47.305Z,83.34
2022-10-06T07:58:26.229Z,83.25
2022-10-06T08:01:11.929Z,83.03
2022-10-06T08:03:43.254Z,83.05
2022-10-06T08:06:16.365Z,82.57
2022-10-06T08:08:51.705Z,82.76
2022-10-06T08:11:35.580Z,82.64
2022-10-06T08:14:04.536Z,81.71
2022-10-06T08:16:46.908Z,81.50
2022-10-06T08:19:29.239Z,81.74
2022-10-06T08:22:13.180Z,81.63
2022-10-06T08:25:04.212Z,81.77
2022-10-06T08:27:31.697Z,81.81
2022-10-06T08:30:00.986Z,81.60
2022-10-06T08:32:29.833Z,81.50
2022-10-06T08:34:59.070Z,81.51
2022-10-06T08:37:28.207Z,81.36
2022-10-06T08:39:58.233Z,80.95
2022-10-06T08:42:50.420Z,81.16
2022-10-06T08:45:29.243Z,80.86
2022-10-06T08:48:05.600Z,80.39
2022-10-06T08:50:43.593Z,80.76
2022-10-06T08:53:40.929Z,80.33
2022-10-06T08:56:18.577Z,79.58
2022-10-06T08:59:04.531Z,80.16
2022-10-06T09:01:54.912Z,80.09
2022-10-06T09:04:30.919Z,80.08
2022-10-06T09:07:25.395Z,79.14
2022-10-06T09:10:18.937Z,79.22
2022-10-06T09:12:53.903Z,78.48
2022-10-06T09:15:42.242Z,78.75
2022-10-06T09:19:03.393Z,78.45
2022-10-06T09:21:42.949Z,77.59
2022-10-06T09:24:37.757Z,78.20
2022-10-06T09:27:29.005Z,78.48
2022-10-06T09:29:58.678Z,78.09
2022-10-06T09:32:29.940Z,78.21
2022-10-06T09:35:04.922Z,78.18
2022-10-06T09:38:09.072Z,78.07
2022-10-06T09:40:40.465Z,77.71
2022-10-06T09:43:28.722Z,77.48
2022-10-06T09:46:31.698Z,77.23
2022-10-06T09:49:25.481Z,76.44
2022-10-06T09:52:15.447Z,76.26
2022-10-06T09:55:12.706Z,76.26
2022-10-06T09:57:50.574Z,75.61
2022-10-06T10:00:31.994Z,75.92
2022-10-06T10:03:07.880Z,76.02
2022-10-06T10:05:40.117Z,75.49
2022-10-06T10:08:14.574Z,75.17
2022-10-06T10:10:43.301Z,75.69
2022-10-06T10:13:44.435Z,76.02
2022-10-06T10:16:17.193Z,75.70
2022-10-06T10:18:51.122Z,75.15
2022-10-06T10:21:35.715Z,75.21
2022-10-06T10:24:34.749Z,75.18
2022-10-06T10:27:16.193Z,74.18
2022-10-06T10:30:18.942Z,74.41
2022-10-06T10:33:16.589Z,73.56
2022-10-06T10:35:53.173Z,71.90
2022-10-06T10:38:42.983Z,71.01
2022-10-06T10:41:31.906Z,70.96
2022-10-06T10:44:28.617Z,68.96
2022-10-06T10:47:11.862Z,68.56
2022-10-06T10:49:45.746Z,68.81
2022-10-06T10:52:34.806Z,69.07
2022-10-06T10:55:18.611Z,69.40
2022-10-06T10:57:50.673Z,70.09
2022-10-06T11:00:37.969Z,70.17
2022-10-06T11:03:20.459Z,69.42
2022-10-06T11:06:15.455Z,68.35
2022-10-06T11:08:57.317Z,66.73
2022-10-06T11:11:53.708Z,66.68
2022-10-06T11:14:58.298Z,67.60
2022-10-06T11:17:46.001Z,67.98
2022-10-06T11:20:53.879Z,67.54
2022-10-06T11:23:55.115Z,66.94
2022-10-06T11:27:17.243Z,66.25
2022-10-06T11:30:15.410Z,65.88
2022-10-06T11:33:24.794Z,65.82
2022-10-06T11:36:14.161Z,65.37
2022-10-06T11:39:20.464Z,63.79
2022-10-06T11:42:15.378Z,63.47
2022-10-06T11:44:48.655Z,63.66
2022-10-06T11:47:35.114Z,63.70
2022-10-06T11:50:45.207Z,62.93
2022-10-06T11:53:39.145Z,62.75
2022-10-06T11:56:20.898Z,61.41
2022-10-06T11:58:53.339Z,61.57
2022-10-06T12:01:34.887Z,61.96
2022-10-06T12:04:22.071Z,62.68
2022-10-06T12:07:07.272Z,62.53
2022-10-06T12:09:51.131Z,61.87
2022-10-06T12:12:24.874Z,62.25
2022-10-06T12:17:09.475Z,61.93
2022-10-06T12:18:33.015Z,61.81
2022-10-06T12:21:33.134Z,61.46
2022-10-06T12:24:37.242Z,62.24
2022-10-06T12:27:41.509Z,61.04
2022-10-06T12:30:29.000Z,61.45
2022-10-06T12:33:19.916Z,60.38
2022-10-06T12:36:19.156Z,59.92
2022-10-06T12:39:02.404Z,60.14
2022-10-06T12:41:56.447Z,59.83
2022-10-06T12:44:30.852Z,59.73
2022-10-06T12:47:05.754Z,59.93
2022-10-06T12:49:43.691Z,60.23
2022-10-06T12:52:27.470Z,59.65
2022-10-06T12:55:12.803Z,60.23
2022-10-06T12:57:55.975Z,60.01
2022-10-06T13:00:40.389Z,60.23
2022-10-06T13:03:26.948Z,60.23
2022-10-06T13:05:59.402Z,60.31
2022-10-06T13:08:34.101Z,60.73
2022-10-06T13:11:21.660Z,59.76
2022-10-06T13:14:14.272Z,60.03
2022-10-06T13:16:47.323Z,59.18
2022-10-06T13:19:21.626Z,59.14
2022-10-06T13:21:51.478Z,58.09
2022-10-06T13:24:34.266Z,57.58
2022-10-06T13:27:18.112Z,57.58
2022-10-06T13:30:19.198Z,55.68
2022-10-06T13:32:55.939Z,56.51
2022-10-06T13:35:39.058Z,55.68
2022-10-06T13:38:08.195Z,55.95
2022-10-06T13:41:18.026Z,55.44
2022-10-06T13:43:53.032Z,54.73
2022-10-06T13:46:40.815Z,54.05
2022-10-06T13:49:30.052Z,53.44
2022-10-06T13:52:31.830Z,54.06
2022-10-06T13:55:25.609Z,54.56
2022-10-06T13:58:00.082Z,54.45
2022-10-06T14:00:33.131Z,54.31
2022-10-06T14:03:05.323Z,55.11
2022-10-06T14:05:49.693Z,54.54
2022-10-06T14:08:28.307Z,55.23
2022-10-06T14:11:07.295Z,54.97
2022-10-06T14:13:49.880Z,54.86
2022-10-06T14:16:32.700Z,54.53
2022-10-06T14:19:37.375Z,54.84
2022-10-06T14:22:35.480Z,54.47
2022-10-06T14:25:12.623Z,54.77
2022-10-06T14:27:41.414Z,53.31
2022-10-06T14:30:23.910Z,53.15
2022-10-06T14:33:06.516Z,53.70
2022-10-06T14:35:35.273Z,53.03
2022-10-06T14:38:17.889Z,53.64
2022-10-06T14:41:03.496Z,54.11
2022-10-06T14:43:47.636Z,53.85
2022-10-06T14:46:16.700Z,53.94
2022-10-06T14:49:00.374Z,54.03
2022-10-06T14:51:44.404Z,54.09
2022-10-06T14:54:27.020Z,53.91
2022-10-06T14:57:09.394Z,53.71
2022-10-06T14:59:38.558Z,53.81
2022-10-06T15:02:21.531Z,54.02
2022-10-06T15:05:04.200Z,53.80
2022-10-06T15:08:05.267Z,53.99
2022-10-06T15:10:54.204Z,54.14
2022-10-06T15:13:23.048Z,54.46
2022-10-06T15:15:58.321Z,54.75
2022-10-06T15:18:27.765Z,54.73
2022-10-06T15:21:11.720Z,54.69
2022-10-06T15:23:40.701Z,54.72
2022-10-06T15:26:42.143Z,54.85
2022-10-06T15:29:11.709Z,54.84
2022-10-06T15:31:55.599Z,55.01
2022-10-06T15:34:38.285Z,54.99
2022-10-06T15:37:21.216Z,55.34
2022-10-06T15:40:05.830Z,55.22
2022-10-06T15:42:34.715Z,55.34
2022-10-06T15:45:07.470Z,55.45
2022-10-06T15:47:36.540Z,55.47
2022-10-06T15:50:19.588Z,55.76
2022-10-06T15:52:48.740Z,55.95
2022-10-06T15:55:31.376Z,55.98
2022-10-06T15:58:00.150Z,56.05
2022-10-06T16:00:29.569Z,56.07
2022-10-06T16:02:58.736Z,55.94
2022-10-06T16:05:45.979Z,55.96
2022-10-06T16:08:28.509Z,55.96
2022-10-06T16:10:57.430Z,56.23
2022-10-06T16:13:39.813Z,56.35
2022-10-06T16:16:22.160Z,56.34
2022-10-06T16:18:51.032Z,56.56
2022-10-06T16:21:19.677Z,56.64
2022-10-06T16:24:02.479Z,56.60
2022-10-06T16:26:31.778Z,56.47
2022-10-06T16:29:15.842Z,56.85
2022-10-06T16:31:59.454Z,56.66
2022-10-06T16:34:41.826Z,56.79
2022-10-06T16:37:13.690Z,56.92
2022-10-06T16:39:56.192Z,57.14
2022-10-06T16:42:38.982Z,57.23
2022-10-06T16:45:08.586Z,57.18
2022-10-06T16:47:51.031Z,57.41
2022-10-06T16:53:17.505Z,57.60
2022-10-06T16:55:59.986Z,57.64
2022-10-06T16:58:35.840Z,57.92
2022-10-06T17:01:05.627Z,58.00
2022-10-06T17:03:34.829Z,57.94
2022-10-06T17:06:12.506Z,58.06
2022-10-06T17:08:42.844Z,58.22
2022-10-06T17:11:26.589Z,58.36
2022-10-06T17:13:58.204Z,58.51
2022-10-06T17:16:43.266Z,58.52
2022-10-06T17:19:29.417Z,58.53
2022-10-06T17:21:59.870Z,58.68
2022-10-06T17:24:29.824Z,58.74
2022-10-06T17:26:59.276Z,58.94
2022-10-06T17:29:41.694Z,59.11
2022-10-06T17:32:24.041Z,59.05
2022-10-06T17:34:54.346Z,59.15
2022-10-06T17:37:37.268Z,59.37
2022-10-06T17:40:06.256Z,59.54
2022-10-06T17:42:48.586Z,59.56
2022-10-06T17:45:21.048Z,59.71
2022-10-06T17:48:03.960Z,59.69
2022-10-06T17:53:47.031Z,60.08
2022-10-06T17:56:18.758Z,60.27
2022-10-06T17:59:04.154Z,60.31
2022-10-06T18:01:46.619Z,60.38
2022-10-06T18:04:30.049Z,60.78
2022-10-06T18:07:12.493Z,60.73
2022-10-06T18:10:13.599Z,61.01
2022-10-06T18:12:42.932Z,61.00
2022-10-06T18:15:12.633Z,61.22
2022-10-06T18:17:54.911Z,61.33
2022-10-06T18:20:30.424Z,61.50
2022-10-06T18:22:59.034Z,61.29
2022-10-06T18:25:28.174Z,61.66
2022-10-06T18:27:57.037Z,61.84
2022-10-06T18:30:29.353Z,62.00
2022-10-06T18:35:57.684Z,62.29
2022-10-06T18:36:15.052Z,62.05
2022-10-06T18:39:00.817Z,62.68
2022-10-06T18:41:44.050Z,62.38
2022-10-06T18:44:13.016Z,62.65
2022-10-06T18:47:00.681Z,62.70
2022-10-06T18:49:43.292Z,62.94
2022-10-06T18:52:12.660Z,62.76
2022-10-06T18:54:54.951Z,62.91
2022-10-06T18:57:37.749Z,62.75
2022-10-06T19:00:20.097Z,63.21
2022-10-06T19:02:52.407Z,63.31
2022-10-06T19:05:21.137Z,63.38
2022-10-06T19:08:04.838Z,63.68
2022-10-06T19:11:07.662Z,63.89
2022-10-06T19:13:53.519Z,64.00
2022-10-06T19:16:22.809Z,63.89
2022-10-06T19:18:51.792Z,63.97
2022-10-06T19:21:20.891Z,64.16
2022-10-06T19:23:50.586Z,64.52
2022-10-06T19:26:22.476Z,64.31
2022-10-06T19:28:51.340Z,64.67
2022-10-06T19:31:34.547Z,65.08
2022-10-06T19:34:04.657Z,64.65
2022-10-06T19:36:33.247Z,64.62
2022-10-06T19:39:16.626Z,65.24
2022-10-06T19:42:03.981Z,64.78
2022-10-06T19:44:46.800Z,64.84
2022-10-06T19:47:16.669Z,65.32
2022-10-06T19:49:45.252Z,65.41
2022-10-06T19:52:14.951Z,65.11
2022-10-06T19:54:44.758Z,65.38
2022-10-06T19:57:13.605Z,65.36
2022-10-06T19:59:42.347Z,65.51
2022-10-06T20:02:12.191Z,65.55
2022-10-06T20:04:41.284Z,65.61
2022-10-06T20:07:10.106Z,65.87
2022-10-06T20:09:52.623Z,65.82
2022-10-06T20:12:35.445Z,66.09
2022-10-06T20:15:05.530Z,66.25
2022-10-06T20:17:35.486Z,66.24
2022-10-06T20:20:19.156Z,66.12
2022-10-06T20:22:50.070Z,66.33
2022-10-06T20:25:18.868Z,66.36
2022-10-06T20:27:47.576Z,66.49
2022-10-06T20:30:16.410Z,66.70
2022-10-06T20:32:45.131Z,66.63
2022-10-06T20:35:15.628Z,66.63
2022-10-06T20:37:57.867Z,66.84
2022-10-06T20:40:44.987Z,66.98
2022-10-06T20:43:27.450Z,67.00
2022-10-06T20:45:56.225Z,67.01
2022-10-06T20:48:26.425Z,67.14
2022-10-06T20:50:56.762Z,67.06
2022-10-06T20:53:31.678Z,67.16
2022-10-06T20:56:14.876Z,67.33
2022-10-06T20:58:58.022Z,67.13
2022-10-06T21:01:27.570Z,67.35
2022-10-06T21:03:56.267Z,67.23
2022-10-06T21:06:24.915Z,67.57
2022-10-06T21:08:55.314Z,67.53
2022-10-06T21:11:26.755Z,67.67
2022-10-06T21:14:11.789Z,67.68
2022-10-06T21:16:44.027Z,67.87
2022-10-06T21:19:27.222Z,67.86
2022-10-06T21:21:56.228Z,67.78
2022-10-06T21:24:38.634Z,67.88
2022-10-06T21:27:21.310Z,67.90
2022-10-06T21:30:04.128Z,67.88
2022-10-06T21:32:33.195Z,67.89
2022-10-06T21:35:15.549Z,67.97
2022-10-06T21:37:44.876Z,67.93
2022-10-06T21:40:27.821Z,68.08
2022-10-06T21:43:10.338Z,68.31
2022-10-06T21:45:39.936Z,68.25
2022-10-06T21:48:09.818Z,68.53
2022-10-06T21:50:38.755Z,68.47
2022-10-06T21:53:22.050Z,68.57
2022-10-06T21:56:04.627Z,68.73
2022-10-06T21:58:53.129Z,68.79
2022-10-06T22:01:38.888Z,68.92
2022-10-06T22:04:21.314Z,68.98
2022-10-06T22:07:03.808Z,69.08
2022-10-06T22:09:46.317Z,69.34
2022-10-06T22:12:15.455Z,69.26
2022-10-06T22:14:44.525Z,69.21
2022-10-06T22:17:27.213Z,69.19
2022-10-06T22:19:55.878Z,69.33
2022-10-06T22:22:24.986Z,69.08
2022-10-06T22:24:53.963Z,69.38
2022-10-06T22:27:23.109Z,69.48
2022-10-06T22:29:52.229Z,69.50
2022-10-06T22:32:34.816Z,69.78
2022-10-06T22:35:03.769Z,69.68
2022-10-06T22:37:46.731Z,69.80
2022-10-06T22:40:15.858Z,69.73
2022-10-06T22:42:58.367Z,69.83
2022-10-06T22:45:40.855Z,69.94
2022-10-06T22:48:23.867Z,70.00
2022-10-06T22:50:52.967Z,70.07
2022-10-06T22:53:24.335Z,69.90
2022-10-06T22:55:53.536Z,70.07
2022-10-06T22:58:36.243Z,70.22
2022-10-06T23:01:19.903Z,70.15
2022-10-06T23:03:49.058Z,70.25
2022-10-06T23:06:19.684Z,70.27
2022-10-06T23:08:48.670Z,70.49
2022-10-06T23:11:20.994Z,70.47
2022-10-06T23:13:51.068Z,70.56
2022-10-06T23:16:21.218Z,70.48
2022-10-06T23:19:03.886Z,70.69
2022-10-06T23:21:46.398Z,70.60
2022-10-06T23:24:28.950Z,70.76
2022-10-06T23:27:11.465Z,70.74
2022-10-06T23:29:40.215Z,70.70
2022-10-06T23:32:09.040Z,70.91
2022-10-06T23:34:38.263Z,70.88
2022-10-06T23:37:07.021Z,70.84
2022-10-06T23:39:49.713Z,70.88
2022-10-06T23:42:18.626Z,70.78
2022-10-06T23:44:47.748Z,71.06
2022-10-06T23:47:30.146Z,70.98
2022-10-06T23:49:58.975Z,71.15
2022-10-06T23:52:28.750Z,71.19
2022-10-06T23:54:57.611Z,71.25
2022-10-06T23:57:26.391Z,71.39
